St Pierre — FIDX — position and weather

sailwx.info

Track history (hours):
 
Tides and Currents Weather Stations Pressure Air Temp Water Temp Dewpoint Dewpoint Depression Visibility Wind Speed Wind Dir Waves Ship Positions

St Pierre

Last reported at 2016-Aug-27 23:34 UTC. Time now 2016-Aug-28 00:35 UTC.
Position N 47°12' W 001°38'.

Length 84 m; draft 5.8 m.

Type: Cargo ship. MMSI: 228024800.

Date/timePositionNaut miles runAvg speedWind from/ knotsBaromVisibWave heightAir tempDewpointWater temp
2016-Aug-27 23:34N 47°12' W 001°38'0 0.0
2016-Aug-27 22:33N 47°12' W 001°38'0 0.0
2016-Aug-27 21:33N 47°12' W 001°38'0 0.0
2016-Aug-27 20:33N 47°12' W 001°38'0 0.0
2016-Aug-27 19:33N 47°12' W 001°38'0 0.0
2016-Aug-27 18:33N 47°12' W 001°38'0 0.0
2016-Aug-27 17:33N 47°12' W 001°38'0 0.0
2016-Aug-27 16:33N 47°12' W 001°38'0 0.0
2016-Aug-27 15:33N 47°12' W 001°38'0 0.0
2016-Aug-27 14:34N 47°12' W 001°38'0 0.0
2016-Aug-27 13:33N 47°12' W 001°38'0 0.0
2016-Aug-27 12:33N 47°12' W 001°38'0 0.0
2016-Aug-27 11:33N 47°12' W 001°38'0 0.0
2016-Aug-27 10:33N 47°12' W 001°38'7 7.1
2016-Aug-27 09:33N 47°13' W 001°48'1110.8
2016-Aug-27 08:33N 47°18' W 002°02'1110.7
2016-Aug-27 07:33N 47°13' W 002°16'8 7.7
2016-Aug-27 06:33N 47°06' W 002°21'1 0.7
2016-Aug-27 04:34N 47°05' W 002°21'0 0.1
2016-Aug-27 03:33N 47°05' W 002°21'0 0.0
2016-Aug-27 02:33N 47°05' W 002°21'10 9.6
2016-Aug-27 01:33N 47°14' W 002°16'1110.6
2016-Aug-27 00:33N 47°18' W 002°01'10 9.9
2016-Aug-26 23:33N 47°13' W 001°49'7 7.4
2016-Aug-26 22:33N 47°12' W 001°38'0 0.0
2016-Aug-26 21:33N 47°12' W 001°38'0 0.0
2016-Aug-26 20:33N 47°12' W 001°38'5 5.1
2016-Aug-26 19:33N 47°12' W 001°45'10 9.7
2016-Aug-26 18:33N 47°17' W 001°58'9 8.7
2016-Aug-26 17:33N 47°17' W 002°11'1110.8
2016-Aug-26 16:33N 47°08' W 002°20'3 3.2
2016-Aug-26 15:34N 47°05' W 002°20'0 0.0
2016-Aug-26 14:31N 47°05' W 002°20'0 0.0
2016-Aug-26 13:24N 47°05' W 002°20'0 0.0
2016-Aug-26 12:31N 47°05' W 002°20'0 0.1
2016-Aug-26 11:32N 47°05' W 002°20'0 0.0
2016-Aug-26 10:32N 47°05' W 002°20'0 0.0
2016-Aug-26 09:33N 47°05' W 002°20'1 0.7
2016-Aug-26 08:33N 47°04' W 002°21'0 0.5
2016-Aug-26 07:33N 47°05' W 002°21'0 0.2
2016-Aug-26 06:33N 47°05' W 002°21'1 0.3
2016-Aug-26 04:33N 47°05' W 002°21'1 0.6
2016-Aug-26 03:33N 47°06' W 002°21'0 0.4
2016-Aug-26 02:33N 47°05' W 002°22'0 0.3
2016-Aug-26 01:34N 47°05' W 002°22'3 2.7
2016-Aug-26 00:34N 47°08' W 002°20'1111.4
2016-Aug-25 23:33N 47°17' W 002°10'1110.6
2016-Aug-25 22:34N 47°17' W 001°55'9 8.6
2016-Aug-25 21:33N 47°12' W 001°44'4 4.1
2016-Aug-25 20:33N 47°12' W 001°38'0 0.0
2016-Aug-25 19:33N 47°12' W 001°38'4 4.5
2016-Aug-25 18:33N 47°12' W 001°44'10 9.7
2016-Aug-25 17:33N 47°17' W 001°57'9 9.0
2016-Aug-25 16:33N 47°17' W 002°10'1010.4
2016-Aug-25 15:33N 47°09' W 002°19'4 4.1
2016-Aug-25 14:33N 47°05' W 002°21'0 0.1
2016-Aug-25 13:34N 47°05' W 002°21'0 0.4
2016-Aug-25 12:33N 47°05' W 002°21'1311.8
2016-Aug-25 11:28N 47°16' W 002°12'1010.8
2016-Aug-25 10:33N 47°17' W 001°57'1010.1
2016-Aug-25 09:33N 47°12' W 001°44'4 4.3
2016-Aug-25 08:33N 47°12' W 001°38'0 0.0
2016-Aug-25 07:33N 47°12' W 001°38'0 0.0
2016-Aug-25 06:34N 47°12' W 001°38'0 0.0
2016-Aug-25 04:33N 47°12' W 001°38'0 0.0
2016-Aug-25 03:33N 47°12' W 001°38'0 0.0
2016-Aug-25 02:34N 47°12' W 001°38'0 0.0
2016-Aug-25 01:33N 47°12' W 001°38'0 0.0
2016-Aug-25 00:33N 47°12' W 001°38'0 0.0
2016-Aug-24 23:33N 47°12' W 001°38'0 0.0
2016-Aug-24 22:33N 47°12' W 001°38'0 0.0
2016-Aug-24 21:33N 47°12' W 001°38'0 0.0
2016-Aug-24 20:33N 47°12' W 001°38'5 4.9
2016-Aug-24 19:33N 47°12' W 001°45'1111.0
2016-Aug-24 18:33N 47°17' W 001°60'1111.4
2016-Aug-24 17:34N 47°14' W 002°16'10 9.7
2016-Aug-24 16:33N 47°05' W 002°21'0 0.2
2016-Aug-24 15:33N 47°05' W 002°21'0 0.2
2016-Aug-24 14:33N 47°05' W 002°21'0 0.3
2016-Aug-24 13:33N 47°05' W 002°21'0 0.3
2016-Aug-24 12:33N 47°05' W 002°21'9 8.9
2016-Aug-24 11:33N 47°13' W 002°17'1111.0
2016-Aug-24 10:33N 47°18' W 002°02'1111.4
2016-Aug-24 09:33N 47°13' W 001°47'7 6.9
2016-Aug-24 08:33N 47°12' W 001°37'0 0.0
2016-Aug-24 07:33N 47°12' W 001°37'0 0.0
2016-Aug-24 06:33N 47°12' W 001°37'0 0.0
2016-Aug-24 04:33N 47°12' W 001°37'0 0.0
2016-Aug-24 03:33N 47°12' W 001°37'0 0.0
2016-Aug-24 02:33N 47°12' W 001°37'0 0.0
2016-Aug-24 01:33N 47°12' W 001°37'0 0.0
2016-Aug-24 00:33N 47°12' W 001°37'0 0.0
2016-Aug-23 23:33N 47°12' W 001°37'0 0.0
2016-Aug-23 22:33N 47°12' W 001°37'0 0.0
2016-Aug-23 21:33N 47°12' W 001°37'0 0.0
2016-Aug-23 20:33N 47°12' W 001°37'0 0.0
2016-Aug-23 19:33N 47°12' W 001°37'0 0.0
2016-Aug-23 18:33N 47°12' W 001°37'0 0.0
2016-Aug-23 17:33N 47°12' W 001°37'0 0.0
2016-Aug-23 16:33N 47°12' W 001°37'0 0.0
2016-Aug-23 15:33N 47°12' W 001°37'0 0.0
2016-Aug-23 14:33N 47°12' W 001°37'0 0.0
2016-Aug-23 13:33N 47°12' W 001°37'0 0.0
2016-Aug-23 12:33N 47°12' W 001°37'0 0.0
2016-Aug-23 11:33N 47°12' W 001°37'0 0.0
2016-Aug-23 10:33N 47°12' W 001°37'0 0.0
2016-Aug-23 09:33N 47°12' W 001°37'0 0.0
2016-Aug-23 08:33N 47°12' W 001°37'0 0.0
2016-Aug-23 07:33N 47°12' W 001°37'0 0.0
2016-Aug-23 06:33N 47°12' W 001°37'0 0.0
2016-Aug-23 05:33N 47°12' W 001°37'0 0.0
2016-Aug-23 04:33N 47°12' W 001°37'0 0.0
2016-Aug-23 03:33N 47°12' W 001°37'0 0.0
2016-Aug-23 02:33N 47°12' W 001°37'0 0.0
2016-Aug-23 01:33N 47°12' W 001°37'0 0.0
2016-Aug-23 00:33N 47°12' W 001°37'0 0.0
2016-Aug-22 23:33N 47°12' W 001°37'0 0.0
2016-Aug-22 22:33N 47°12' W 001°37'0 0.0
2016-Aug-22 21:33N 47°12' W 001°37'0 0.0
2016-Aug-22 20:33N 47°12' W 001°37'0 0.0
2016-Aug-22 19:33N 47°12' W 001°37'0 0.0
2016-Aug-22 18:33N 47°12' W 001°37'0 0.0
2016-Aug-22 17:33N 47°12' W 001°37'0 0.0
2016-Aug-22 16:33N 47°12' W 001°37'0 0.0
2016-Aug-22 15:33N 47°12' W 001°37'0 0.0
2016-Aug-22 14:33N 47°12' W 001°37'0 0.0
2016-Aug-22 13:33N 47°12' W 001°37'0 0.0
2016-Aug-22 12:33N 47°12' W 001°37'0 0.0
2016-Aug-22 11:33N 47°12' W 001°37'0 0.0
2016-Aug-22 10:33N 47°12' W 001°37'0 0.0
2016-Aug-22 09:33N 47°12' W 001°37'0 0.0
2016-Aug-22 08:33N 47°12' W 001°37'0 0.0
2016-Aug-22 07:33N 47°12' W 001°37'0 0.0
2016-Aug-22 06:33N 47°12' W 001°37'0 0.0
2016-Aug-22 05:33N 47°12' W 001°37'0 0.0
2016-Aug-22 04:33N 47°12' W 001°37'0 0.0
2016-Aug-22 03:33N 47°12' W 001°37'0 0.0
2016-Aug-22 02:33N 47°12' W 001°37'0 0.0
2016-Aug-22 01:33N 47°12' W 001°37'0 0.0
2016-Aug-22 00:33N 47°12' W 001°37'0 0.0
2016-Aug-21 23:33N 47°12' W 001°37'0 0.0
2016-Aug-21 22:33N 47°12' W 001°37'0 0.0
2016-Aug-21 21:33N 47°12' W 001°37'0 0.0
2016-Aug-21 20:33N 47°12' W 001°37'0 0.0
2016-Aug-21 19:34N 47°12' W 001°37'0 0.0
2016-Aug-21 18:33N 47°12' W 001°37'0 0.0
2016-Aug-21 17:33N 47°12' W 001°37'0 0.0
2016-Aug-21 16:33N 47°12' W 001°37'0 0.0
2016-Aug-21 15:33N 47°12' W 001°37'0 0.0
2016-Aug-21 14:33N 47°12' W 001°37'0 0.0
2016-Aug-21 13:33N 47°12' W 001°37'0 0.0
2016-Aug-21 12:33N 47°12' W 001°37'0 0.0
2016-Aug-21 11:33N 47°12' W 001°37'0 0.0
2016-Aug-21 10:33N 47°12' W 001°37'0 0.0
2016-Aug-21 09:33N 47°12' W 001°37'0 0.0
2016-Aug-21 08:33N 47°12' W 001°37'0 0.0
2016-Aug-21 07:33N 47°12' W 001°37'0 0.0
2016-Aug-21 06:33N 47°12' W 001°37'0 0.0
2016-Aug-21 05:33N 47°12' W 001°37'0 0.0
2016-Aug-21 04:33N 47°12' W 001°37'0 0.0
2016-Aug-21 03:33N 47°12' W 001°37'0 0.0
2016-Aug-21 02:33N 47°12' W 001°37'0 0.0
2016-Aug-21 01:34N 47°12' W 001°37'0 0.0
2016-Aug-21 00:33N 47°12' W 001°37'0 0.0
2016-Aug-20 23:33N 47°12' W 001°37'0 0.0
2016-Aug-20 22:33N 47°12' W 001°37'0 0.0
2016-Aug-20 21:33N 47°12' W 001°37'0 0.0
2016-Aug-20 20:33N 47°12' W 001°37'0 0.0
2016-Aug-20 19:33N 47°12' W 001°37'0 0.0
2016-Aug-20 18:33N 47°12' W 001°37'0 0.0
2016-Aug-20 17:33N 47°12' W 001°37'0 0.0
2016-Aug-20 16:33N 47°12' W 001°37'0 0.0
2016-Aug-20 15:33N 47°12' W 001°37'0 0.0
2016-Aug-20 14:33N 47°12' W 001°37'0 0.0
2016-Aug-20 13:33N 47°12' W 001°37'0 0.0
2016-Aug-20 12:33N 47°12' W 001°37'0 0.0
2016-Aug-20 11:33N 47°12' W 001°37'0 0.0
2016-Aug-20 10:33N 47°12' W 001°37'0 0.0
2016-Aug-20 09:33N 47°12' W 001°37'0 0.0
2016-Aug-20 08:33N 47°12' W 001°37'1 0.7
2016-Aug-20 07:34N 47°12' W 001°38'0 0.0
2016-Aug-20 06:33N 47°12' W 001°38'0 0.0
2016-Aug-20 05:33N 47°12' W 001°38'0 0.0
2016-Aug-20 04:33N 47°12' W 001°38'0 0.0
2016-Aug-20 03:33N 47°12' W 001°38'0 0.0
2016-Aug-20 02:33N 47°12' W 001°38'0 0.0
2016-Aug-20 01:33N 47°12' W 001°38'0 0.0
2016-Aug-20 00:33N 47°12' W 001°38'0 0.0
2016-Aug-19 23:33N 47°12' W 001°38'0 0.0
2016-Aug-19 22:33N 47°12' W 001°38'0 0.0
2016-Aug-19 21:33N 47°12' W 001°38'0 0.0
2016-Aug-19 20:33N 47°12' W 001°38'0 0.0
2016-Aug-19 19:33N 47°12' W 001°38'0 0.0
2016-Aug-19 18:33N 47°12' W 001°38'0 0.0
2016-Aug-19 17:33N 47°12' W 001°38'0 0.0
2016-Aug-19 16:33N 47°12' W 001°38'9 8.6
2016-Aug-19 15:33N 47°14' W 001°50'1110.7
2016-Aug-19 14:33N 47°18' W 002°05'6 6.4
2016-Aug-19 13:33N 47°15' W 002°13'1110.8
2016-Aug-19 12:33N 47°06' W 002°21'1 0.7
2016-Aug-19 11:33N 47°05' W 002°20'0 0.0
2016-Aug-19 10:33N 47°05' W 002°20'0 0.2
2016-Aug-19 09:33N 47°05' W 002°21'0 0.2
2016-Aug-19 08:33N 47°05' W 002°20'0 0.2
2016-Aug-19 07:33N 47°05' W 002°21'10 9.8
2016-Aug-19 06:33N 47°14' W 002°15'7 7.1
2016-Aug-19 05:34N 47°18' W 002°07'0 0.0
2016-Aug-19 04:34N 47°18' W 002°07'0 0.0
2016-Aug-19 03:33N 47°18' W 002°07'0 0.0
2016-Aug-19 02:33N 47°18' W 002°07'0 0.0
2016-Aug-19 01:33N 47°18' W 002°07'0 0.0
2016-Aug-19 00:33N 47°18' W 002°07'0 0.0
2016-Aug-18 23:34N 47°18' W 002°07'0 0.0
2016-Aug-18 22:33N 47°18' W 002°07'0 0.0
2016-Aug-18 21:34N 47°18' W 002°07'0 0.0
2016-Aug-18 20:33N 47°18' W 002°07'0 0.0
2016-Aug-18 19:33N 47°18' W 002°07'0 0.0
2016-Aug-18 18:33N 47°18' W 002°07'0 0.1
2016-Aug-18 17:33N 47°18' W 002°07'9 9.0
2016-Aug-18 16:33N 47°12' W 002°17'8 7.6
2016-Aug-18 15:33N 47°05' W 002°21'0 0.1
2016-Aug-18 14:33N 47°05' W 002°21'0 0.3
2016-Aug-18 13:31N 47°05' W 002°20'0 0.1
2016-Aug-18 12:33N 47°05' W 002°20'0 0.2
2016-Aug-18 11:33N 47°05' W 002°20'0 0.1
2016-Aug-18 10:33N 47°05' W 002°21'0 0.0
2016-Aug-18 09:33N 47°05' W 002°21'7 6.8
2016-Aug-18 08:29N 47°12' W 002°17'9 8.0
2016-Aug-18 07:19N 47°18' W 002°07'0 0.0
2016-Aug-18 06:33N 47°18' W 002°07'0 0.0
2016-Aug-18 05:34N 47°18' W 002°07'1 1.3
2016-Aug-18 04:33N 47°18' W 002°09'1110.9
2016-Aug-18 03:33N 47°09' W 002°19'5 4.6
2016-Aug-18 02:34N 47°05' W 002°21'0 0.1
2016-Aug-18 01:34N 47°05' W 002°21'0 0.0
2016-Aug-18 00:34N 47°05' W 002°21'  
Track history (hours):
 
Tides and Currents Weather Stations Pressure Air Temp Water Temp Dewpoint Dewpoint Depression Visibility Wind Speed Wind Dir Waves Ship Positions

St Pierre

Last reported at 2016-Aug-27 23:34 UTC. Time now 2016-Aug-28 00:35 UTC.
Position N 47°12' W 001°38'.

Length 84 m; draft 5.8 m.

Type: Cargo ship. MMSI: 228024800.

Date/timePositionNaut miles runAvg speedWind from/ knotsBaromVisibWave heightAir tempDewpointWater temp
2016-Aug-27 23:34N 47°12' W 001°38'0 0.0
2016-Aug-27 22:33N 47°12' W 001°38'0 0.0
2016-Aug-27 21:33N 47°12' W 001°38'0 0.0
2016-Aug-27 20:33N 47°12' W 001°38'0 0.0
2016-Aug-27 19:33N 47°12' W 001°38'0 0.0
2016-Aug-27 18:33N 47°12' W 001°38'0 0.0
2016-Aug-27 17:33N 47°12' W 001°38'0 0.0
2016-Aug-27 16:33N 47°12' W 001°38'0 0.0
2016-Aug-27 15:33N 47°12' W 001°38'0 0.0
2016-Aug-27 14:34N 47°12' W 001°38'0 0.0
2016-Aug-27 13:33N 47°12' W 001°38'0 0.0
2016-Aug-27 12:33N 47°12' W 001°38'0 0.0
2016-Aug-27 11:33N 47°12' W 001°38'0 0.0
2016-Aug-27 10:33N 47°12' W 001°38'7 7.1
2016-Aug-27 09:33N 47°13' W 001°48'1110.8
2016-Aug-27 08:33N 47°18' W 002°02'1110.7
2016-Aug-27 07:33N 47°13' W 002°16'8 7.7
2016-Aug-27 06:33N 47°06' W 002°21'1 0.7
2016-Aug-27 04:34N 47°05' W 002°21'0 0.1
2016-Aug-27 03:33N 47°05' W 002°21'0 0.0
2016-Aug-27 02:33N 47°05' W 002°21'10 9.6
2016-Aug-27 01:33N 47°14' W 002°16'1110.6
2016-Aug-27 00:33N 47°18' W 002°01'10 9.9
2016-Aug-26 23:33N 47°13' W 001°49'7 7.4
2016-Aug-26 22:33N 47°12' W 001°38'0 0.0
2016-Aug-26 21:33N 47°12' W 001°38'0 0.0
2016-Aug-26 20:33N 47°12' W 001°38'5 5.1
2016-Aug-26 19:33N 47°12' W 001°45'10 9.7
2016-Aug-26 18:33N 47°17' W 001°58'9 8.7
2016-Aug-26 17:33N 47°17' W 002°11'1110.8
2016-Aug-26 16:33N 47°08' W 002°20'3 3.2
2016-Aug-26 15:34N 47°05' W 002°20'0 0.0
2016-Aug-26 14:31N 47°05' W 002°20'0 0.0
2016-Aug-26 13:24N 47°05' W 002°20'0 0.0
2016-Aug-26 12:31N 47°05' W 002°20'0 0.1
2016-Aug-26 11:32N 47°05' W 002°20'0 0.0
2016-Aug-26 10:32N 47°05' W 002°20'0 0.0
2016-Aug-26 09:33N 47°05' W 002°20'1 0.7
2016-Aug-26 08:33N 47°04' W 002°21'0 0.5
2016-Aug-26 07:33N 47°05' W 002°21'0 0.2
2016-Aug-26 06:33N 47°05' W 002°21'1 0.3
2016-Aug-26 04:33N 47°05' W 002°21'1 0.6
2016-Aug-26 03:33N 47°06' W 002°21'0 0.4
2016-Aug-26 02:33N 47°05' W 002°22'0 0.3
2016-Aug-26 01:34N 47°05' W 002°22'3 2.7
2016-Aug-26 00:34N 47°08' W 002°20'1111.4
2016-Aug-25 23:33N 47°17' W 002°10'1110.6
2016-Aug-25 22:34N 47°17' W 001°55'9 8.6
2016-Aug-25 21:33N 47°12' W 001°44'4 4.1
2016-Aug-25 20:33N 47°12' W 001°38'0 0.0
2016-Aug-25 19:33N 47°12' W 001°38'4 4.5
2016-Aug-25 18:33N 47°12' W 001°44'10 9.7
2016-Aug-25 17:33N 47°17' W 001°57'9 9.0
2016-Aug-25 16:33N 47°17' W 002°10'1010.4
2016-Aug-25 15:33N 47°09' W 002°19'4 4.1
2016-Aug-25 14:33N 47°05' W 002°21'0 0.1
2016-Aug-25 13:34N 47°05' W 002°21'0 0.4
2016-Aug-25 12:33N 47°05' W 002°21'1311.8
2016-Aug-25 11:28N 47°16' W 002°12'1010.8
2016-Aug-25 10:33N 47°17' W 001°57'1010.1
2016-Aug-25 09:33N 47°12' W 001°44'4 4.3
2016-Aug-25 08:33N 47°12' W 001°38'0 0.0
2016-Aug-25 07:33N 47°12' W 001°38'0 0.0
2016-Aug-25 06:34N 47°12' W 001°38'0 0.0
2016-Aug-25 04:33N 47°12' W 001°38'0 0.0
2016-Aug-25 03:33N 47°12' W 001°38'0 0.0
2016-Aug-25 02:34N 47°12' W 001°38'0 0.0
2016-Aug-25 01:33N 47°12' W 001°38'0 0.0
2016-Aug-25 00:33N 47°12' W 001°38'0 0.0
2016-Aug-24 23:33N 47°12' W 001°38'0 0.0
2016-Aug-24 22:33N 47°12' W 001°38'0 0.0
2016-Aug-24 21:33N 47°12' W 001°38'0 0.0
2016-Aug-24 20:33N 47°12' W 001°38'5 4.9
2016-Aug-24 19:33N 47°12' W 001°45'1111.0
2016-Aug-24 18:33N 47°17' W 001°60'1111.4
2016-Aug-24 17:34N 47°14' W 002°16'10 9.7
2016-Aug-24 16:33N 47°05' W 002°21'0 0.2
2016-Aug-24 15:33N 47°05' W 002°21'0 0.2
2016-Aug-24 14:33N 47°05' W 002°21'0 0.3
2016-Aug-24 13:33N 47°05' W 002°21'0 0.3
2016-Aug-24 12:33N 47°05' W 002°21'9 8.9
2016-Aug-24 11:33N 47°13' W 002°17'1111.0
2016-Aug-24 10:33N 47°18' W 002°02'1111.4
2016-Aug-24 09:33N 47°13' W 001°47'7 6.9
2016-Aug-24 08:33N 47°12' W 001°37'0 0.0
2016-Aug-24 07:33N 47°12' W 001°37'0 0.0
2016-Aug-24 06:33N 47°12' W 001°37'0 0.0
2016-Aug-24 04:33N 47°12' W 001°37'0 0.0
2016-Aug-24 03:33N 47°12' W 001°37'0 0.0
2016-Aug-24 02:33N 47°12' W 001°37'0 0.0
2016-Aug-24 01:33N 47°12' W 001°37'0 0.0
2016-Aug-24 00:33N 47°12' W 001°37'0 0.0
2016-Aug-23 23:33N 47°12' W 001°37'0 0.0
2016-Aug-23 22:33N 47°12' W 001°37'0 0.0
2016-Aug-23 21:33N 47°12' W 001°37'0 0.0
2016-Aug-23 20:33N 47°12' W 001°37'0 0.0
2016-Aug-23 19:33N 47°12' W 001°37'0 0.0
2016-Aug-23 18:33N 47°12' W 001°37'0 0.0
2016-Aug-23 17:33N 47°12' W 001°37'0 0.0
2016-Aug-23 16:33N 47°12' W 001°37'0 0.0
2016-Aug-23 15:33N 47°12' W 001°37'0 0.0
2016-Aug-23 14:33N 47°12' W 001°37'0 0.0
2016-Aug-23 13:33N 47°12' W 001°37'0 0.0
2016-Aug-23 12:33N 47°12' W 001°37'0 0.0
2016-Aug-23 11:33N 47°12' W 001°37'0 0.0
2016-Aug-23 10:33N 47°12' W 001°37'0 0.0
2016-Aug-23 09:33N 47°12' W 001°37'0 0.0
2016-Aug-23 08:33N 47°12' W 001°37'0 0.0
2016-Aug-23 07:33N 47°12' W 001°37'0 0.0
2016-Aug-23 06:33N 47°12' W 001°37'0 0.0
2016-Aug-23 05:33N 47°12' W 001°37'0 0.0
2016-Aug-23 04:33N 47°12' W 001°37'0 0.0
2016-Aug-23 03:33N 47°12' W 001°37'0 0.0
2016-Aug-23 02:33N 47°12' W 001°37'0 0.0
2016-Aug-23 01:33N 47°12' W 001°37'0 0.0
2016-Aug-23 00:33N 47°12' W 001°37'0 0.0
2016-Aug-22 23:33N 47°12' W 001°37'0 0.0
2016-Aug-22 22:33N 47°12' W 001°37'0 0.0
2016-Aug-22 21:33N 47°12' W 001°37'0 0.0
2016-Aug-22 20:33N 47°12' W 001°37'0 0.0
2016-Aug-22 19:33N 47°12' W 001°37'0 0.0
2016-Aug-22 18:33N 47°12' W 001°37'0 0.0
2016-Aug-22 17:33N 47°12' W 001°37'0 0.0
2016-Aug-22 16:33N 47°12' W 001°37'0 0.0
2016-Aug-22 15:33N 47°12' W 001°37'0 0.0
2016-Aug-22 14:33N 47°12' W 001°37'0 0.0
2016-Aug-22 13:33N 47°12' W 001°37'0 0.0
2016-Aug-22 12:33N 47°12' W 001°37'0 0.0
2016-Aug-22 11:33N 47°12' W 001°37'0 0.0
2016-Aug-22 10:33N 47°12' W 001°37'0 0.0
2016-Aug-22 09:33N 47°12' W 001°37'0 0.0
2016-Aug-22 08:33N 47°12' W 001°37'0 0.0
2016-Aug-22 07:33N 47°12' W 001°37'0 0.0
2016-Aug-22 06:33N 47°12' W 001°37'0 0.0
2016-Aug-22 05:33N 47°12' W 001°37'0 0.0
2016-Aug-22 04:33N 47°12' W 001°37'0 0.0
2016-Aug-22 03:33N 47°12' W 001°37'0 0.0
2016-Aug-22 02:33N 47°12' W 001°37'0 0.0
2016-Aug-22 01:33N 47°12' W 001°37'0 0.0
2016-Aug-22 00:33N 47°12' W 001°37'0 0.0
2016-Aug-21 23:33N 47°12' W 001°37'0 0.0
2016-Aug-21 22:33N 47°12' W 001°37'0 0.0
2016-Aug-21 21:33N 47°12' W 001°37'0 0.0
2016-Aug-21 20:33N 47°12' W 001°37'0 0.0
2016-Aug-21 19:34N 47°12' W 001°37'0 0.0
2016-Aug-21 18:33N 47°12' W 001°37'0 0.0
2016-Aug-21 17:33N 47°12' W 001°37'0 0.0
2016-Aug-21 16:33N 47°12' W 001°37'0 0.0
2016-Aug-21 15:33N 47°12' W 001°37'0 0.0
2016-Aug-21 14:33N 47°12' W 001°37'0 0.0
2016-Aug-21 13:33N 47°12' W 001°37'0 0.0
2016-Aug-21 12:33N 47°12' W 001°37'0 0.0
2016-Aug-21 11:33N 47°12' W 001°37'0 0.0
2016-Aug-21 10:33N 47°12' W 001°37'0 0.0
2016-Aug-21 09:33N 47°12' W 001°37'0 0.0
2016-Aug-21 08:33N 47°12' W 001°37'0 0.0
2016-Aug-21 07:33N 47°12' W 001°37'0 0.0
2016-Aug-21 06:33N 47°12' W 001°37'0 0.0
2016-Aug-21 05:33N 47°12' W 001°37'0 0.0
2016-Aug-21 04:33N 47°12' W 001°37'0 0.0
2016-Aug-21 03:33N 47°12' W 001°37'0 0.0
2016-Aug-21 02:33N 47°12' W 001°37'0 0.0
2016-Aug-21 01:34N 47°12' W 001°37'0 0.0
2016-Aug-21 00:33N 47°12' W 001°37'0 0.0
2016-Aug-20 23:33N 47°12' W 001°37'0 0.0
2016-Aug-20 22:33N 47°12' W 001°37'0 0.0
2016-Aug-20 21:33N 47°12' W 001°37'0 0.0
2016-Aug-20 20:33N 47°12' W 001°37'0 0.0
2016-Aug-20 19:33N 47°12' W 001°37'0 0.0
2016-Aug-20 18:33N 47°12' W 001°37'0 0.0
2016-Aug-20 17:33N 47°12' W 001°37'0 0.0
2016-Aug-20 16:33N 47°12' W 001°37'0 0.0
2016-Aug-20 15:33N 47°12' W 001°37'0 0.0
2016-Aug-20 14:33N 47°12' W 001°37'0 0.0
2016-Aug-20 13:33N 47°12' W 001°37'0 0.0
2016-Aug-20 12:33N 47°12' W 001°37'0 0.0
2016-Aug-20 11:33N 47°12' W 001°37'0 0.0
2016-Aug-20 10:33N 47°12' W 001°37'0 0.0
2016-Aug-20 09:33N 47°12' W 001°37'0 0.0
2016-Aug-20 08:33N 47°12' W 001°37'1 0.7
2016-Aug-20 07:34N 47°12' W 001°38'0 0.0
2016-Aug-20 06:33N 47°12' W 001°38'0 0.0
2016-Aug-20 05:33N 47°12' W 001°38'0 0.0
2016-Aug-20 04:33N 47°12' W 001°38'0 0.0
2016-Aug-20 03:33N 47°12' W 001°38'0 0.0
2016-Aug-20 02:33N 47°12' W 001°38'0 0.0
2016-Aug-20 01:33N 47°12' W 001°38'0 0.0
2016-Aug-20 00:33N 47°12' W 001°38'0 0.0
2016-Aug-19 23:33N 47°12' W 001°38'0 0.0
2016-Aug-19 22:33N 47°12' W 001°38'0 0.0
2016-Aug-19 21:33N 47°12' W 001°38'0 0.0
2016-Aug-19 20:33N 47°12' W 001°38'0 0.0
2016-Aug-19 19:33N 47°12' W 001°38'0 0.0
2016-Aug-19 18:33N 47°12' W 001°38'0 0.0
2016-Aug-19 17:33N 47°12' W 001°38'0 0.0
2016-Aug-19 16:33N 47°12' W 001°38'9 8.6
2016-Aug-19 15:33N 47°14' W 001°50'1110.7
2016-Aug-19 14:33N 47°18' W 002°05'6 6.4
2016-Aug-19 13:33N 47°15' W 002°13'1110.8
2016-Aug-19 12:33N 47°06' W 002°21'1 0.7
2016-Aug-19 11:33N 47°05' W 002°20'0 0.0
2016-Aug-19 10:33N 47°05' W 002°20'0 0.2
2016-Aug-19 09:33N 47°05' W 002°21'0 0.2
2016-Aug-19 08:33N 47°05' W 002°20'0 0.2
2016-Aug-19 07:33N 47°05' W 002°21'10 9.8
2016-Aug-19 06:33N 47°14' W 002°15'7 7.1
2016-Aug-19 05:34N 47°18' W 002°07'0 0.0
2016-Aug-19 04:34N 47°18' W 002°07'0 0.0
2016-Aug-19 03:33N 47°18' W 002°07'0 0.0
2016-Aug-19 02:33N 47°18' W 002°07'0 0.0
2016-Aug-19 01:33N 47°18' W 002°07'0 0.0
2016-Aug-19 00:33N 47°18' W 002°07'0 0.0
2016-Aug-18 23:34N 47°18' W 002°07'0 0.0
2016-Aug-18 22:33N 47°18' W 002°07'0 0.0
2016-Aug-18 21:34N 47°18' W 002°07'0 0.0
2016-Aug-18 20:33N 47°18' W 002°07'0 0.0
2016-Aug-18 19:33N 47°18' W 002°07'0 0.0
2016-Aug-18 18:33N 47°18' W 002°07'0 0.1
2016-Aug-18 17:33N 47°18' W 002°07'9 9.0
2016-Aug-18 16:33N 47°12' W 002°17'8 7.6
2016-Aug-18 15:33N 47°05' W 002°21'0 0.1
2016-Aug-18 14:33N 47°05' W 002°21'0 0.3
2016-Aug-18 13:31N 47°05' W 002°20'0 0.1
2016-Aug-18 12:33N 47°05' W 002°20'0 0.2
2016-Aug-18 11:33N 47°05' W 002°20'0 0.1
2016-Aug-18 10:33N 47°05' W 002°21'0 0.0
2016-Aug-18 09:33N 47°05' W 002°21'7 6.8
2016-Aug-18 08:29N 47°12' W 002°17'9 8.0
2016-Aug-18 07:19N 47°18' W 002°07'0 0.0
2016-Aug-18 06:33N 47°18' W 002°07'0 0.0
2016-Aug-18 05:34N 47°18' W 002°07'1 1.3
2016-Aug-18 04:33N 47°18' W 002°09'1110.9
2016-Aug-18 03:33N 47°09' W 002°19'5 4.6
2016-Aug-18 02:34N 47°05' W 002°21'0 0.1
2016-Aug-18 01:34N 47°05' W 002°21'0 0.0
2016-Aug-18 00:34N 47°05' W 002°21'  

Dump ship's entire track history